createdAt,value
2022-08-29T00:03:01.229Z,52.40
2022-08-29T00:06:04.851Z,43.60
2022-08-29T00:09:06.788Z,47.60
2022-08-29T00:12:08.923Z,46.40
2022-08-29T00:15:11.968Z,44.40
2022-08-29T00:18:19.421Z,49.50
2022-08-29T00:21:21.396Z,55.50
2022-08-29T00:24:23.178Z,52.20
2022-08-29T00:27:25.451Z,50.90
2022-08-29T00:30:27.310Z,42.90
2022-08-29T00:33:29.202Z,44.40
2022-08-29T00:36:31.052Z,41.30
2022-08-29T00:39:33.150Z,36.50
2022-08-29T00:42:36.717Z,36.10
2022-08-29T00:45:47.005Z,35.90
2022-08-29T00:48:54.655Z,39.20
2022-08-29T00:51:58.700Z,39.80
2022-08-29T00:55:04.032Z,38.60
2022-08-29T00:58:18.688Z,38.80
2022-08-29T01:01:21.443Z,36.80
2022-08-29T01:04:24.529Z,36.70
2022-08-29T01:07:27.068Z,37.80
2022-08-29T01:10:47.378Z,39.20
2022-08-29T01:13:49.625Z,34.00
2022-08-29T01:16:52.675Z,34.80
2022-08-29T01:20:06.275Z,36.10
2022-08-29T01:23:15.643Z,35.40
2022-08-29T01:26:17.439Z,31.30
2022-08-29T01:29:19.178Z,34.80
2022-08-29T01:32:22.581Z,35.90
2022-08-29T01:35:25.463Z,32.60
2022-08-29T01:38:29.974Z,34.70
2022-08-29T01:41:32.961Z,35.50
2022-08-29T01:44:34.636Z,34.80
2022-08-29T01:47:37.939Z,34.10
2022-08-29T01:50:40.005Z,31.70
2022-08-29T01:53:42.442Z,31.50
2022-08-29T01:56:47.485Z,32.70
2022-08-29T01:59:49.650Z,32.90
2022-08-29T02:02:52.046Z,36.60
2022-08-29T02:05:54.016Z,32.60
2022-08-29T02:08:56.065Z,34.10
2022-08-29T02:11:58.435Z,31.90
2022-08-29T02:15:00.530Z,33.50
2022-08-29T02:18:02.377Z,29.90
2022-08-29T02:21:04.707Z,31.90
2022-08-29T02:24:24.044Z,29.30
2022-08-29T02:27:27.122Z,28.20
2022-08-29T02:30:28.846Z,28.00
2022-08-29T02:33:31.524Z,31.40
2022-08-29T02:36:33.943Z,29.20
2022-08-29T02:39:36.186Z,27.70
2022-08-29T02:42:38.488Z,27.40
2022-08-29T02:45:41.875Z,30.50
2022-08-29T02:48:49.306Z,27.70
2022-08-29T02:52:04.693Z,32.90
2022-08-29T02:55:07.534Z,30.20
2022-08-29T02:58:09.493Z,29.00
2022-08-29T03:01:11.474Z,31.20
2022-08-29T03:04:13.530Z,29.70
2022-08-29T03:07:15.409Z,29.10
2022-08-29T03:10:17.331Z,31.90
2022-08-29T03:13:19.290Z,30.30
2022-08-29T03:16:21.128Z,30.60
2022-08-29T03:19:23.198Z,30.00
2022-08-29T03:22:26.237Z,26.70
2022-08-29T03:25:28.212Z,25.50
2022-08-29T03:28:30.439Z,25.80
2022-08-29T03:31:32.721Z,24.90
2022-08-29T03:34:34.873Z,25.50
2022-08-29T03:37:37.134Z,24.80
2022-08-29T03:40:41.229Z,25.00
2022-08-29T03:43:43.066Z,27.30
2022-08-29T03:46:45.480Z,26.80
2022-08-29T03:49:49.337Z,25.40
2022-08-29T03:52:51.547Z,25.80
2022-08-29T03:55:53.323Z,25.20
2022-08-29T03:58:55.896Z,26.80
2022-08-29T04:01:58.703Z,27.30
2022-08-29T04:05:10.034Z,25.50
2022-08-29T04:08:12.941Z,27.00
2022-08-29T04:11:16.147Z,28.30
2022-08-29T04:14:20.186Z,35.60
2022-08-29T04:17:21.854Z,32.90
2022-08-29T04:20:25.890Z,33.70
2022-08-29T04:23:28.071Z,34.30
2022-08-29T04:26:37.808Z,34.50
2022-08-29T04:29:39.973Z,33.00
2022-08-29T04:32:42.016Z,33.90
2022-08-29T04:35:44.057Z,34.60
2022-08-29T04:38:45.840Z,36.30
2022-08-29T04:41:47.685Z,36.10
2022-08-29T04:44:49.440Z,42.20
2022-08-29T04:47:51.616Z,40.80
2022-08-29T04:50:58.273Z,48.30
2022-08-29T04:54:00.228Z,46.30
2022-08-29T04:57:03.472Z,44.50
2022-08-29T05:00:14.042Z,43.00
2022-08-29T05:03:16.529Z,47.80
2022-08-29T05:06:22.628Z,48.90
2022-08-29T05:09:24.715Z,49.60
2022-08-29T05:12:28.313Z,49.30
2022-08-29T05:15:30.469Z,47.90
2022-08-29T05:18:32.253Z,51.30
2022-08-29T05:21:36.514Z,51.50
2022-08-29T05:24:38.543Z,49.40
2022-08-29T05:27:41.064Z,52.80
2022-08-29T05:30:42.769Z,51.40
2022-08-29T05:33:44.624Z,50.90
2022-08-29T05:36:46.377Z,50.70
2022-08-29T05:39:49.990Z,51.00
2022-08-29T05:42:51.696Z,54.40
2022-08-29T05:46:03.892Z,52.40
2022-08-29T05:49:05.920Z,49.10
2022-08-29T05:52:08.437Z,50.80
2022-08-29T05:55:11.062Z,52.90
2022-08-29T05:58:12.887Z,55.50
2022-08-29T06:01:25.232Z,57.50
2022-08-29T06:04:28.062Z,56.00
2022-08-29T06:07:31.062Z,55.60
2022-08-29T06:10:33.182Z,61.00
2022-08-29T06:13:35.061Z,58.20
2022-08-29T06:16:37.061Z,65.00
2022-08-29T06:19:39.852Z,58.90
2022-08-29T06:22:41.788Z,62.10
2022-08-29T06:25:43.437Z,58.30
2022-08-29T06:28:46.377Z,58.80
2022-08-29T06:31:48.169Z,58.60
2022-08-29T06:34:50.005Z,59.80
2022-08-29T06:37:51.845Z,60.40
2022-08-29T06:40:53.526Z,66.20
2022-08-29T06:43:57.022Z,59.50
2022-08-29T06:46:59.387Z,59.70
2022-08-29T06:50:01.188Z,61.70
2022-08-29T06:53:26.371Z,61.30
2022-08-29T06:56:24.754Z,64.40
2022-08-29T06:59:28.605Z,60.00
2022-08-29T07:02:30.422Z,59.30
2022-08-29T07:05:32.265Z,62.10
2022-08-29T07:08:34.943Z,59.40
2022-08-29T07:11:41.088Z,60.50
2022-08-29T07:14:43.254Z,56.80
2022-08-29T07:17:45.531Z,54.30
2022-08-29T07:20:47.450Z,54.20
2022-08-29T07:23:50.199Z,52.80
2022-08-29T07:26:52.245Z,53.10
2022-08-29T07:29:54.385Z,46.80
2022-08-29T07:32:56.227Z,41.00
2022-08-29T07:36:01.286Z,44.90
2022-08-29T07:39:06.807Z,44.60
2022-08-29T07:42:08.618Z,41.80
2022-08-29T07:45:12.197Z,39.20
2022-08-29T07:48:14.414Z,38.90
2022-08-29T07:51:18.402Z,39.00
2022-08-29T07:54:21.171Z,36.40
2022-08-29T07:57:23.692Z,35.20
2022-08-29T08:00:25.453Z,32.80
2022-08-29T08:03:27.294Z,31.90
2022-08-29T08:06:29.049Z,28.60
2022-08-29T08:09:32.822Z,25.80
2022-08-29T08:12:34.669Z,20.80
2022-08-29T08:15:38.682Z,21.50
2022-08-29T08:18:42.162Z,28.60
2022-08-29T08:21:49.632Z,18.60
2022-08-29T08:24:53.062Z,21.10
2022-08-29T08:27:54.934Z,17.70
2022-08-29T08:31:01.188Z,18.10
2022-08-29T08:34:06.466Z,19.10
2022-08-29T08:37:09.340Z,17.70
2022-08-29T08:40:19.868Z,19.60
2022-08-29T08:46:38.919Z,19.50
2022-08-29T08:49:45.803Z,19.50
2022-08-29T08:53:07.510Z,23.90
2022-08-29T08:56:26.513Z,20.90
2022-08-29T08:59:39.584Z,17.80
2022-08-29T09:02:49.489Z,18.40
2022-08-29T09:06:29.782Z,20.70
2022-08-29T09:09:59.545Z,19.80
2022-08-29T09:13:21.638Z,22.30
2022-08-29T09:16:47.042Z,19.50
2022-08-29T09:19:51.131Z,18.60
2022-08-29T09:23:03.487Z,20.80
2022-08-29T09:26:05.480Z,19.00
2022-08-29T09:29:12.046Z,16.90
2022-08-29T09:32:18.824Z,18.80
2022-08-29T09:35:42.486Z,20.90
2022-08-29T09:38:44.193Z,16.60
2022-08-29T09:41:57.770Z,20.50
2022-08-29T09:45:26.675Z,18.50
2022-08-29T09:48:31.063Z,14.80
2022-08-29T09:51:39.022Z,17.30
2022-08-29T09:54:41.751Z,16.50
2022-08-29T09:57:53.040Z,15.50
2022-08-29T10:01:05.505Z,18.60
2022-08-29T10:04:09.211Z,16.50
2022-08-29T10:07:24.423Z,15.40
2022-08-29T10:10:30.701Z,19.60
2022-08-29T10:13:53.282Z,15.20
2022-08-29T10:17:22.859Z,17.30
2022-08-29T10:20:51.166Z,14.20
2022-08-29T10:24:01.777Z,13.20
2022-08-29T10:27:32.725Z,15.40
2022-08-29T10:31:14.435Z,12.80
2022-08-29T10:34:31.613Z,12.60
2022-08-29T10:38:14.976Z,10.90
2022-08-29T10:41:39.881Z,13.50
2022-08-29T10:45:07.915Z,11.80
2022-08-29T10:48:11.859Z,12.40
2022-08-29T10:51:26.366Z,12.30
2022-08-29T10:54:43.738Z,14.20
2022-08-29T10:58:12.390Z,12.30
2022-08-29T11:01:25.985Z,12.20
2022-08-29T11:04:39.387Z,15.00
2022-08-29T11:07:51.043Z,15.50
2022-08-29T11:10:53.562Z,9.90
2022-08-29T11:14:05.568Z,12.80
2022-08-29T11:17:10.580Z,12.50
2022-08-29T11:20:40.701Z,12.80
2022-08-29T11:23:47.717Z,13.20
2022-08-29T11:27:21.593Z,18.50
2022-08-29T11:30:46.091Z,16.80
2022-08-29T11:34:08.249Z,18.40
2022-08-29T11:37:25.918Z,14.30
2022-08-29T11:44:37.871Z,18.20
2022-08-29T11:47:45.551Z,15.70
2022-08-29T11:50:49.384Z,10.90
2022-08-29T11:53:51.333Z,11.10
2022-08-29T11:57:02.351Z,20.20
2022-08-29T12:03:35.240Z,18.30
2022-08-29T12:06:57.339Z,17.20
2022-08-29T12:10:06.626Z,21.00
2022-08-29T12:13:08.475Z,19.20
2022-08-29T12:16:12.392Z,19.40
2022-08-29T12:19:47.433Z,22.50
2022-08-29T12:22:52.284Z,20.80
2022-08-29T12:26:21.081Z,19.00
2022-08-29T12:29:25.744Z,20.40
2022-08-29T12:32:46.694Z,17.60
2022-08-29T12:36:19.363Z,20.30
2022-08-29T12:39:45.858Z,20.00
2022-08-29T12:43:12.251Z,16.90
2022-08-29T12:46:30.874Z,18.00
2022-08-29T12:49:51.679Z,15.00
2022-08-29T12:53:23.884Z,19.90
2022-08-29T12:56:28.865Z,20.40
2022-08-29T12:59:30.754Z,19.90
2022-08-29T13:02:35.620Z,21.60
2022-08-29T13:05:39.486Z,19.50
2022-08-29T13:08:41.290Z,20.40
2022-08-29T13:11:43.031Z,17.90
2022-08-29T13:15:00.366Z,19.10
2022-08-29T13:18:03.250Z,21.00
2022-08-29T13:21:27.213Z,16.50
2022-08-29T13:24:29.090Z,19.10
2022-08-29T13:27:30.796Z,20.30
2022-08-29T13:30:32.443Z,22.50
2022-08-29T13:33:35.989Z,20.20
2022-08-29T13:36:52.025Z,23.70
2022-08-29T13:39:54.339Z,20.40
2022-08-29T13:42:57.017Z,22.80
2022-08-29T13:46:18.445Z,23.80
2022-08-29T13:49:26.225Z,21.60
2022-08-29T13:52:31.410Z,21.80
2022-08-29T13:55:34.640Z,23.10
2022-08-29T13:58:36.522Z,20.40
2022-08-29T14:05:00.397Z,19.70
2022-08-29T14:08:02.769Z,19.80
2022-08-29T14:11:04.561Z,19.90
2022-08-29T14:14:13.134Z,20.00
2022-08-29T14:17:18.536Z,23.70
2022-08-29T14:20:21.081Z,22.10
2022-08-29T14:23:23.370Z,23.20
2022-08-29T14:26:26.421Z,21.40
2022-08-29T14:29:30.063Z,21.70
2022-08-29T14:32:32.675Z,21.70
2022-08-29T14:35:34.925Z,22.20
2022-08-29T14:38:36.792Z,21.70
2022-08-29T14:41:38.778Z,21.30
2022-08-29T14:44:40.659Z,20.60
2022-08-29T14:47:43.607Z,18.90
2022-08-29T14:50:45.460Z,19.10
2022-08-29T14:53:54.250Z,20.00
2022-08-29T14:56:56.652Z,21.10
2022-08-29T14:59:58.405Z,19.30
2022-08-29T15:03:00.513Z,20.90
2022-08-29T15:06:05.673Z,22.80
2022-08-29T15:09:07.476Z,21.00
2022-08-29T15:12:13.444Z,22.00
2022-08-29T15:15:15.232Z,21.70
2022-08-29T15:18:42.816Z,22.70
2022-08-29T15:21:40.776Z,19.60
2022-08-29T15:24:42.706Z,18.40
2022-08-29T15:27:44.655Z,19.90
2022-08-29T15:30:47.576Z,22.60
2022-08-29T15:33:49.598Z,21.30
2022-08-29T15:36:52.231Z,20.00
2022-08-29T15:39:55.119Z,24.00
2022-08-29T15:42:57.037Z,22.80
2022-08-29T15:45:59.443Z,23.30
2022-08-29T15:49:01.878Z,20.90
2022-08-29T15:52:03.664Z,18.30
2022-08-29T15:55:06.435Z,17.80
2022-08-29T15:58:08.101Z,23.30
2022-08-29T16:01:10.471Z,18.50
2022-08-29T16:04:14.468Z,21.30
2022-08-29T16:07:17.116Z,20.30
2022-08-29T16:10:18.885Z,22.60
2022-08-29T16:13:21.309Z,21.90
2022-08-29T16:16:23.110Z,22.50
2022-08-29T16:19:24.960Z,22.70
2022-08-29T16:22:27.814Z,23.70
2022-08-29T16:25:31.136Z,19.90
2022-08-29T16:28:33.418Z,20.20
2022-08-29T16:31:36.095Z,20.50
2022-08-29T16:34:38.422Z,20.90
2022-08-29T16:37:40.401Z,19.80
2022-08-29T16:40:42.197Z,17.10
2022-08-29T16:43:45.557Z,20.00
2022-08-29T16:46:47.297Z,22.40
2022-08-29T16:49:49.003Z,19.20
2022-08-29T16:52:50.763Z,20.60
2022-08-29T16:55:52.666Z,20.80
2022-08-29T16:59:04.519Z,21.30
2022-08-29T17:02:06.777Z,19.10
2022-08-29T17:05:08.598Z,21.60
2022-08-29T17:08:10.323Z,17.90
2022-08-29T17:11:11.962Z,21.50
2022-08-29T17:14:14.538Z,22.30
2022-08-29T17:17:16.389Z,20.80
2022-08-29T17:20:20.346Z,20.80
2022-08-29T17:23:22.194Z,22.70
2022-08-29T17:26:24.179Z,20.30
2022-08-29T17:29:25.988Z,19.90
2022-08-29T17:32:28.511Z,19.80
2022-08-29T17:35:31.289Z,22.80
2022-08-29T17:38:33.580Z,21.70
2022-08-29T17:41:37.632Z,24.10
2022-08-29T17:44:39.507Z,20.40
2022-08-29T17:47:41.375Z,22.30
2022-08-29T17:50:43.774Z,23.80
2022-08-29T17:53:45.724Z,22.50
2022-08-29T17:56:54.028Z,22.30
2022-08-29T17:59:56.019Z,23.70
2022-08-29T18:02:58.490Z,25.00
2022-08-29T18:06:00.261Z,23.30
2022-08-29T18:09:02.244Z,22.90
2022-08-29T18:12:04.257Z,22.50
2022-08-29T18:15:07.379Z,25.90
2022-08-29T18:18:09.757Z,25.30
2022-08-29T18:21:16.455Z,21.30
2022-08-29T18:24:20.089Z,22.60
2022-08-29T18:27:22.459Z,22.00
2022-08-29T18:30:24.381Z,23.60
2022-08-29T18:33:38.864Z,18.90
2022-08-29T18:36:49.144Z,25.60
2022-08-29T18:39:50.976Z,21.20
2022-08-29T18:42:52.838Z,24.40
2022-08-29T18:45:55.402Z,20.30
2022-08-29T18:48:57.477Z,25.80
2022-08-29T18:51:59.154Z,22.30
2022-08-29T18:55:00.915Z,23.80
2022-08-29T18:58:02.792Z,24.80
2022-08-29T19:01:27.107Z,23.20
2022-08-29T19:04:30.009Z,24.40
2022-08-29T19:07:31.889Z,24.90
2022-08-29T19:10:34.282Z,24.10
2022-08-29T19:13:36.118Z,25.00
2022-08-29T19:16:39.648Z,27.60
2022-08-29T19:20:00.166Z,24.90
2022-08-29T19:23:03.656Z,22.10
2022-08-29T19:26:09.022Z,27.10
2022-08-29T19:29:13.514Z,22.90
2022-08-29T19:32:15.337Z,24.20
2022-08-29T19:35:17.221Z,26.00
2022-08-29T19:38:20.585Z,30.40
2022-08-29T19:41:22.478Z,24.00
2022-08-29T19:44:24.599Z,26.10
2022-08-29T19:47:26.364Z,29.00
2022-08-29T19:50:28.154Z,26.00
2022-08-29T19:53:29.926Z,29.50
2022-08-29T19:56:33.620Z,28.30
2022-08-29T19:59:35.561Z,25.70
2022-08-29T20:02:37.558Z,26.90
2022-08-29T20:05:39.678Z,26.40
2022-08-29T20:08:43.677Z,26.80
2022-08-29T20:11:45.711Z,30.00
2022-08-29T20:14:50.209Z,28.50
2022-08-29T20:17:51.953Z,29.90
2022-08-29T20:20:55.545Z,26.60
2022-08-29T20:23:58.398Z,28.50
2022-08-29T20:27:01.589Z,28.80
2022-08-29T20:30:06.293Z,27.20
2022-08-29T20:33:08.213Z,26.40
2022-08-29T20:36:34.522Z,25.90
2022-08-29T20:39:46.418Z,25.40
2022-08-29T20:42:48.215Z,28.70
2022-08-29T20:45:49.983Z,32.50
2022-08-29T20:48:51.675Z,31.00
2022-08-29T20:51:53.409Z,29.80
2022-08-29T20:54:55.208Z,30.20
2022-08-29T20:57:57.018Z,32.30
2022-08-29T21:01:00.763Z,30.60
2022-08-29T21:04:23.074Z,29.30
2022-08-29T21:07:25.917Z,26.60
2022-08-29T21:10:27.710Z,27.40
2022-08-29T21:13:29.540Z,28.30
2022-08-29T21:16:31.503Z,24.50
2022-08-29T21:19:34.597Z,25.90
2022-08-29T21:22:36.321Z,26.00
2022-08-29T21:25:40.293Z,30.40
2022-08-29T21:28:44.355Z,31.00
2022-08-29T21:31:50.585Z,29.30
2022-08-29T21:34:52.441Z,27.60
2022-08-29T21:37:54.306Z,28.70
2022-08-29T21:40:58.750Z,34.90
2022-08-29T21:44:00.508Z,28.10
2022-08-29T21:47:03.035Z,28.00
2022-08-29T21:50:06.011Z,27.90
2022-08-29T21:53:08.007Z,28.50
2022-08-29T21:56:09.702Z,27.50
2022-08-29T21:59:12.401Z,26.80
2022-08-29T22:02:15.223Z,26.90
2022-08-29T22:05:17.083Z,26.50
2022-08-29T22:08:21.027Z,29.40
2022-08-29T22:11:29.458Z,25.20
2022-08-29T22:14:58.134Z,29.00
2022-08-29T22:18:00.170Z,26.20
2022-08-29T22:21:02.574Z,27.70
2022-08-29T22:24:06.778Z,28.20
2022-08-29T22:27:08.542Z,25.60
2022-08-29T22:30:12.091Z,27.90
2022-08-29T22:33:16.418Z,24.70
2022-08-29T22:36:19.300Z,25.00
2022-08-29T22:39:21.060Z,27.00
2022-08-29T22:42:22.959Z,24.50
2022-08-29T22:45:25.948Z,79.20
2022-08-29T22:48:27.706Z,20.90
2022-08-29T22:51:29.748Z,23.40
2022-08-29T22:54:37.635Z,22.50
2022-08-29T22:57:40.825Z,23.80
2022-08-29T23:00:42.702Z,26.80
2022-08-29T23:03:45.339Z,27.10
2022-08-29T23:06:56.585Z,25.40
2022-08-29T23:09:58.392Z,25.20
2022-08-29T23:13:00.085Z,27.40
2022-08-29T23:16:01.858Z,30.80
2022-08-29T23:19:04.280Z,23.40
2022-08-29T23:22:07.518Z,26.80
2022-08-29T23:25:10.021Z,25.40
2022-08-29T23:28:11.816Z,24.50
2022-08-29T23:31:15.419Z,26.30
2022-08-29T23:34:17.551Z,23.00
2022-08-29T23:37:19.426Z,24.80
2022-08-29T23:40:21.226Z,28.90
2022-08-29T23:43:24.778Z,27.20
2022-08-29T23:46:26.743Z,30.10
2022-08-29T23:49:29.019Z,31.00
2022-08-29T23:52:30.829Z,26.70
2022-08-29T23:55:32.608Z,38.00
2022-08-29T23:58:34.390Z,34.20
